createdAt,value
2022-12-25T00:06:47.367Z,89
2022-12-25T00:07:54.500Z,89
2022-12-25T00:09:01.676Z,89
2022-12-25T00:10:08.948Z,89
2022-12-25T02:17:39.475Z,89
2022-12-25T02:18:49.649Z,89
2022-12-25T02:19:57.175Z,89
2022-12-25T02:21:12.557Z,89
2022-12-25T04:29:22.041Z,89
2022-12-25T04:30:34.006Z,89
2022-12-25T04:31:45.922Z,89
2022-12-25T04:32:58.328Z,89
2022-12-25T04:34:10.561Z,89
2022-12-25T04:39:25.882Z,89
2022-12-25T04:40:32.945Z,89
2022-12-25T04:41:39.812Z,89
2022-12-25T04:42:47.009Z,89
2022-12-25T04:43:54.289Z,89
2022-12-25T04:45:39.566Z,89
2022-12-25T04:46:46.585Z,89
2022-12-25T04:47:53.728Z,89
2022-12-25T04:49:01.030Z,89
2022-12-25T04:50:07.964Z,89
2022-12-25T04:51:16.750Z,89
2022-12-25T04:52:23.859Z,89
2022-12-25T04:53:30.955Z,89
2022-12-25T04:54:38.131Z,89
2022-12-25T04:55:44.982Z,89
2022-12-25T04:57:09.718Z,89
2022-12-25T04:58:16.733Z,89
2022-12-25T04:59:23.974Z,89
2022-12-25T05:00:31.068Z,89
2022-12-25T05:01:37.948Z,89
2022-12-25T05:02:45.772Z,88
2022-12-25T05:03:52.732Z,89
2022-12-25T05:05:00.189Z,89
2022-12-25T05:06:07.262Z,89
2022-12-25T05:07:14.219Z,89
2022-12-25T05:35:26.145Z,90
2022-12-25T05:36:33.246Z,89
2022-12-25T05:37:40.322Z,89
2022-12-25T05:38:47.283Z,89
2022-12-25T05:59:46.868Z,89
2022-12-25T06:00:54.092Z,89
2022-12-25T06:02:01.403Z,89
2022-12-25T06:03:08.725Z,89
2022-12-25T06:04:15.612Z,89
2022-12-25T06:13:08.062Z,89
2022-12-25T06:14:15.116Z,89
2022-12-25T06:15:22.297Z,89
2022-12-25T06:16:34.127Z,89
2022-12-25T06:17:36.787Z,90
2022-12-25T06:22:26.783Z,90
2022-12-25T06:23:33.808Z,89
2022-12-25T06:24:40.931Z,89
2022-12-25T06:25:48.085Z,89
2022-12-25T06:26:55.159Z,90
2022-12-25T06:42:04.781Z,89
2022-12-25T06:43:11.687Z,89
2022-12-25T06:44:18.849Z,89
2022-12-25T06:45:26.022Z,89
2022-12-25T06:54:40.530Z,89
2022-12-25T06:55:47.692Z,89
2022-12-25T06:56:54.825Z,89
2022-12-25T06:58:02.020Z,89
2022-12-25T06:59:09.141Z,89
2022-12-25T07:00:21.619Z,89
2022-12-25T07:01:28.742Z,89
2022-12-25T07:02:35.918Z,89
2022-12-25T07:03:42.610Z,89
2022-12-25T07:04:49.845Z,89
2022-12-25T07:06:10.114Z,89
2022-12-25T07:07:17.274Z,89
2022-12-25T07:08:24.524Z,89
2022-12-25T07:09:31.784Z,89
2022-12-25T07:10:39.010Z,89
2022-12-25T07:38:05.927Z,88
2022-12-25T07:39:13.049Z,88
2022-12-25T07:40:20.219Z,88
2022-12-25T07:41:27.439Z,89
2022-12-25T07:42:35.780Z,89
2022-12-25T07:43:42.980Z,89
2022-12-25T07:44:50.092Z,89
2022-12-25T07:45:57.314Z,88
2022-12-25T07:47:04.429Z,89
2022-12-25T07:52:04.198Z,89
2022-12-25T07:53:11.120Z,89
2022-12-25T07:54:17.729Z,89
2022-12-25T07:55:24.853Z,89
2022-12-25T07:56:32.073Z,89
2022-12-25T07:58:57.366Z,89
2022-12-25T08:00:04.433Z,89
2022-12-25T08:01:12.190Z,89
2022-12-25T08:02:25.128Z,89
2022-12-25T08:03:32.205Z,89
2022-12-25T08:05:39.805Z,89
2022-12-25T08:06:46.538Z,90
2022-12-25T08:07:57.294Z,89
2022-12-25T08:09:00.972Z,89
2022-12-25T08:10:08.096Z,89
2022-12-25T08:14:08.619Z,89
2022-12-25T08:15:15.752Z,89
2022-12-25T08:16:22.983Z,89
2022-12-25T08:17:30.031Z,89
2022-12-25T08:19:31.777Z,89
2022-12-25T08:20:39.002Z,89
2022-12-25T08:21:46.261Z,89
2022-12-25T08:22:53.429Z,89
2022-12-25T08:24:00.443Z,89
2022-12-25T08:27:44.067Z,89
2022-12-25T08:28:51.217Z,89
2022-12-25T08:29:58.341Z,89
2022-12-25T08:31:05.617Z,89
2022-12-25T09:14:38.093Z,88
2022-12-25T09:15:45.494Z,88
2022-12-25T09:16:52.565Z,88
2022-12-25T09:17:59.571Z,88
2022-12-25T09:40:05.643Z,88
2022-12-25T09:41:12.943Z,87
2022-12-25T09:42:25.329Z,86
2022-12-25T09:43:32.665Z,86
2022-12-25T09:44:42.565Z,86
2022-12-25T10:26:47.204Z,83
2022-12-25T10:27:54.115Z,83
2022-12-25T10:29:06.520Z,83
2022-12-25T10:30:18.931Z,83
2022-12-25T10:31:50.446Z,83
2022-12-25T10:32:57.741Z,83
2022-12-25T10:34:04.902Z,83
2022-12-25T10:35:12.863Z,83
2022-12-25T10:36:22.732Z,83
2022-12-25T10:37:33.560Z,83
2022-12-25T10:38:40.824Z,83
2022-12-25T10:39:48.104Z,83
2022-12-25T10:40:55.441Z,83
2022-12-25T10:42:07.468Z,83
2022-12-25T10:43:42.759Z,83
2022-12-25T10:44:52.628Z,83
2022-12-25T10:46:02.884Z,83
2022-12-25T10:47:12.556Z,83
2022-12-25T10:48:19.697Z,83
2022-12-25T10:53:02.047Z,83
2022-12-25T10:54:08.962Z,82
2022-12-25T10:55:26.693Z,82
2022-12-25T10:56:28.409Z,82
2022-12-25T10:57:35.579Z,82
2022-12-25T10:58:47.460Z,82
2022-12-25T10:59:54.644Z,82
2022-12-25T11:01:01.827Z,82
2022-12-25T11:02:09.059Z,82
2022-12-25T11:04:16.769Z,82
2022-12-25T11:05:29.086Z,81
2022-12-25T11:06:36.088Z,82
2022-12-25T11:07:42.940Z,82
2022-12-25T11:08:55.280Z,81
2022-12-25T11:10:05.505Z,82
2022-12-25T11:11:09.827Z,82
2022-12-25T11:12:16.672Z,82
2022-12-25T11:13:23.904Z,81
2022-12-25T11:14:31.026Z,81
2022-12-25T11:15:37.856Z,82
2022-12-25T11:16:50.043Z,81
2022-12-25T11:17:57.256Z,81
2022-12-25T11:22:27.396Z,81
2022-12-25T11:23:34.600Z,81
2022-12-25T11:24:41.911Z,82
2022-12-25T11:25:49.124Z,81
2022-12-25T11:27:00.562Z,82
2022-12-25T11:28:07.544Z,81
2022-12-25T11:29:14.712Z,81
2022-12-25T11:30:32.004Z,81
2022-12-25T11:31:38.857Z,81
2022-12-25T11:32:52.335Z,81
2022-12-25T11:33:59.204Z,80
2022-12-25T11:35:11.559Z,80
2022-12-25T11:36:18.743Z,80
2022-12-25T11:37:33.460Z,81
2022-12-25T11:38:50.431Z,81
2022-12-25T11:39:57.438Z,81
2022-12-25T11:41:04.481Z,81
2022-12-25T11:42:11.489Z,81
2022-12-25T11:43:18.599Z,81
2022-12-25T11:44:32.599Z,81
2022-12-25T11:45:47.536Z,81
2022-12-25T11:46:57.797Z,81
2022-12-25T11:48:05.787Z,81
2022-12-25T11:49:18.194Z,81
2022-12-25T11:50:41.166Z,81
2022-12-25T11:51:54.023Z,81
2022-12-25T11:53:00.795Z,81
2022-12-25T11:54:18.355Z,81
2022-12-25T11:55:27.939Z,81
2022-12-25T11:56:41.604Z,80
2022-12-25T11:57:48.782Z,81
2022-12-25T11:58:55.752Z,81
2022-12-25T12:00:10.570Z,81
2022-12-25T12:01:17.815Z,81
2022-12-25T12:02:33.177Z,81
2022-12-25T12:03:42.503Z,81
2022-12-25T12:04:49.661Z,81
2022-12-25T12:05:56.815Z,81
2022-12-25T12:07:06.618Z,81
2022-12-25T12:08:22.283Z,81
2022-12-25T12:09:29.378Z,81
2022-12-25T12:10:44.438Z,81
2022-12-25T12:12:01.819Z,81
2022-12-25T12:14:03.371Z,81
2022-12-25T12:15:18.544Z,81
2022-12-25T12:16:31.036Z,81
2022-12-25T12:17:37.857Z,81
2022-12-25T12:18:49.927Z,80
2022-12-25T12:20:26.881Z,80
2022-12-25T12:21:33.964Z,80
2022-12-25T12:22:41.003Z,80
2022-12-25T12:23:48.115Z,79
2022-12-25T12:25:03.892Z,80
2022-12-25T12:29:04.872Z,80
2022-12-25T12:30:11.980Z,80
2022-12-25T12:31:24.296Z,79
2022-12-25T12:32:41.905Z,79
2022-12-25T12:33:49.031Z,80
2022-12-25T12:48:01.951Z,80
2022-12-25T12:49:19.256Z,80
2022-12-25T12:50:29.547Z,80
2022-12-25T12:51:39.871Z,80
2022-12-25T12:53:14.222Z,80
2022-12-25T12:54:26.463Z,80
2022-12-25T12:55:33.806Z,80
2022-12-25T12:56:41.315Z,80
2022-12-25T12:57:58.992Z,80
2022-12-25T12:59:23.019Z,80
2022-12-25T13:00:30.017Z,79
2022-12-25T13:01:47.867Z,80
2022-12-25T13:02:54.874Z,79
2022-12-25T13:04:12.132Z,80
2022-12-25T13:08:47.647Z,79
2022-12-25T13:09:54.899Z,79
2022-12-25T13:11:07.029Z,79
2022-12-25T13:12:21.908Z,79
2022-12-25T13:13:37.378Z,79
2022-12-25T13:14:44.616Z,78
2022-12-25T13:15:51.644Z,79
2022-12-25T13:16:58.838Z,79
2022-12-25T13:18:05.845Z,79
2022-12-25T13:20:22.963Z,79
2022-12-25T13:21:30.162Z,79
2022-12-25T13:22:37.290Z,80
2022-12-25T13:23:44.395Z,80
2022-12-25T13:24:51.523Z,80
2022-12-25T13:26:01.289Z,80
2022-12-25T13:27:08.443Z,80
2022-12-25T13:28:25.789Z,80
2022-12-25T13:29:32.969Z,80
2022-12-25T13:30:48.248Z,80
2022-12-25T13:31:55.332Z,80
2022-12-25T13:33:02.308Z,80
2022-12-25T13:34:09.432Z,81
2022-12-25T13:35:16.656Z,81
2022-12-25T13:49:13.106Z,81
2022-12-25T13:50:20.259Z,81
2022-12-25T13:51:30.491Z,81
2022-12-25T13:52:37.334Z,81
2022-12-25T14:26:11.687Z,82
2022-12-25T14:27:21.296Z,82
2022-12-25T14:28:28.472Z,82
2022-12-25T14:29:35.616Z,82
2022-12-25T15:25:34.713Z,82
2022-12-25T15:26:41.702Z,83
2022-12-25T15:27:49.005Z,83
2022-12-25T15:28:56.063Z,83
2022-12-25T15:30:11.181Z,83
2022-12-25T15:32:43.450Z,83
2022-12-25T15:33:50.711Z,83
2022-12-25T15:34:57.542Z,83
2022-12-25T15:36:04.770Z,83
2022-12-25T15:37:11.880Z,83
2022-12-25T15:46:05.358Z,83
2022-12-25T15:47:12.530Z,83
2022-12-25T15:48:19.671Z,83
2022-12-25T15:49:26.887Z,84
2022-12-25T15:50:34.089Z,84
2022-12-25T15:51:43.791Z,84
2022-12-25T15:52:50.729Z,84
2022-12-25T15:53:58.086Z,84
2022-12-25T15:55:04.914Z,83
2022-12-25T15:56:12.631Z,83
2022-12-25T15:57:19.693Z,84
2022-12-25T15:58:26.920Z,84
2022-12-25T15:59:34.227Z,84
2022-12-25T16:00:41.480Z,84
2022-12-25T16:01:48.698Z,84
2022-12-25T16:02:55.899Z,84
2022-12-25T16:04:03.786Z,84
2022-12-25T16:05:10.835Z,84
2022-12-25T16:06:17.930Z,83
2022-12-25T16:07:25.080Z,83
2022-12-25T16:08:32.153Z,83
2022-12-25T16:09:38.911Z,83
2022-12-25T16:10:46.130Z,83
2022-12-25T16:11:53.378Z,83
2022-12-25T16:13:00.526Z,83
2022-12-25T16:14:07.624Z,83
2022-12-25T16:15:14.860Z,83
2022-12-25T16:16:22.890Z,84
2022-12-25T16:17:29.632Z,84
2022-12-25T16:18:38.723Z,84
2022-12-25T16:19:43.787Z,84
2022-12-25T16:20:52.650Z,84
2022-12-25T16:21:59.469Z,84
2022-12-25T16:23:06.579Z,84
2022-12-25T16:24:13.753Z,84
2022-12-25T16:25:20.946Z,84
2022-12-25T16:26:28.647Z,84
2022-12-25T16:27:35.805Z,84
2022-12-25T16:28:42.590Z,84
2022-12-25T16:29:49.797Z,84
2022-12-25T16:30:56.953Z,84
2022-12-25T16:32:09.326Z,83
2022-12-25T16:33:16.392Z,83
2022-12-25T16:34:23.553Z,83
2022-12-25T16:35:30.892Z,83
2022-12-25T16:36:37.918Z,83
2022-12-25T16:37:44.676Z,83
2022-12-25T16:38:51.839Z,83
2022-12-25T16:39:58.988Z,83
2022-12-25T16:41:06.238Z,83
2022-12-25T16:42:13.343Z,83
2022-12-25T16:43:24.056Z,83
2022-12-25T16:44:27.631Z,83
2022-12-25T16:45:34.778Z,83
2022-12-25T16:46:42.723Z,83
2022-12-25T16:47:49.731Z,83
2022-12-25T16:48:57.031Z,83
2022-12-25T16:50:04.087Z,83
2022-12-25T16:51:11.204Z,83
2022-12-25T16:52:20.943Z,83
2022-12-25T16:53:28.098Z,83
2022-12-25T16:54:35.262Z,83
2022-12-25T16:55:42.278Z,83
2022-12-25T16:56:54.346Z,83
2022-12-25T16:58:01.660Z,83
2022-12-25T16:59:08.787Z,83
2022-12-25T17:00:15.947Z,83
2022-12-25T17:01:23.191Z,83
2022-12-25T17:02:40.206Z,83
2022-12-25T17:03:46.816Z,83
2022-12-25T17:04:53.912Z,83
2022-12-25T17:06:01.281Z,83
2022-12-25T17:07:08.255Z,83
2022-12-25T17:08:15.429Z,83
2022-12-25T17:09:22.274Z,83
2022-12-25T17:10:30.414Z,83
2022-12-25T17:11:37.487Z,83
2022-12-25T17:12:44.575Z,83
2022-12-25T17:13:51.471Z,83
2022-12-25T17:15:04.818Z,83
2022-12-25T17:16:12.008Z,84
2022-12-25T17:17:19.150Z,83
2022-12-25T17:18:26.302Z,83
2022-12-25T17:19:33.510Z,84
2022-12-25T17:20:40.412Z,83
2022-12-25T17:21:52.734Z,83
2022-12-25T17:22:59.830Z,83
2022-12-25T17:24:09.997Z,83
2022-12-25T17:25:17.109Z,83
2022-12-25T17:26:23.815Z,84
2022-12-25T17:27:30.994Z,83
2022-12-25T17:28:38.123Z,83
2022-12-25T17:29:45.102Z,83
2022-12-25T17:31:12.586Z,83
2022-12-25T17:32:19.795Z,84
2022-12-25T17:33:27.076Z,83
2022-12-25T17:34:34.167Z,83
2022-12-25T17:35:40.978Z,84
2022-12-25T17:36:59.119Z,84
2022-12-25T17:38:06.162Z,84
2022-12-25T17:39:13.217Z,84
2022-12-25T17:40:20.425Z,84
2022-12-25T17:41:27.445Z,83
2022-12-25T17:42:34.185Z,83
2022-12-25T17:43:41.084Z,83
2022-12-25T17:44:48.411Z,83
2022-12-25T17:45:55.314Z,83
2022-12-25T17:47:39.175Z,83
2022-12-25T17:48:46.278Z,83
2022-12-25T17:49:53.789Z,83
2022-12-25T17:51:00.975Z,83
2022-12-25T17:52:10.773Z,83
2022-12-25T17:54:40.576Z,83
2022-12-25T17:55:47.781Z,84
2022-12-25T17:56:54.869Z,84
2022-12-25T17:58:02.047Z,83
2022-12-25T17:59:09.238Z,83
2022-12-25T18:27:24.005Z,83
2022-12-25T18:28:31.269Z,83
2022-12-25T18:29:38.443Z,83
2022-12-25T18:30:45.349Z,83
2022-12-25T18:31:52.640Z,83
2022-12-25T19:52:29.110Z,84
2022-12-25T19:53:36.145Z,84
2022-12-25T19:54:43.040Z,84
2022-12-25T19:55:50.190Z,84
2022-12-25T19:57:53.071Z,84
2022-12-25T19:59:00.128Z,84
2022-12-25T20:00:07.074Z,84
2022-12-25T20:01:14.268Z,84
2022-12-25T20:02:21.482Z,84
2022-12-25T20:03:45.670Z,84
2022-12-25T20:04:50.986Z,84
2022-12-25T20:05:58.145Z,84
2022-12-25T20:07:05.021Z,84
2022-12-25T20:08:12.229Z,84
2022-12-25T20:24:11.824Z,84
2022-12-25T20:25:18.994Z,84
2022-12-25T20:26:26.120Z,84
2022-12-25T20:27:33.461Z,84
2022-12-25T20:28:40.747Z,84
2022-12-25T20:29:47.798Z,84
2022-12-25T20:30:55.003Z,84
2022-12-25T20:32:02.205Z,84
2022-12-25T20:33:09.257Z,84
2022-12-25T21:21:07.243Z,84
2022-12-25T21:22:14.192Z,84
2022-12-25T21:23:21.321Z,84
2022-12-25T21:24:28.511Z,84
2022-12-25T21:25:35.814Z,84
2022-12-25T21:27:21.729Z,84
2022-12-25T21:28:28.607Z,84
2022-12-25T21:29:35.716Z,84
2022-12-25T21:30:42.697Z,84
2022-12-25T21:31:50.579Z,84
2022-12-25T21:33:06.118Z,84
2022-12-25T21:34:18.472Z,84
2022-12-25T21:35:25.555Z,84
2022-12-25T21:36:32.712Z,84
2022-12-25T21:37:39.502Z,84
2022-12-25T21:48:47.788Z,84
2022-12-25T21:49:54.930Z,84
2022-12-25T21:51:07.250Z,84
2022-12-25T21:52:19.523Z,84
2022-12-25T21:57:49.905Z,84
2022-12-25T21:58:56.999Z,84
2022-12-25T22:00:04.212Z,84
2022-12-25T22:01:12.053Z,84
2022-12-25T22:02:19.414Z,84
2022-12-25T22:21:22.334Z,84
2022-12-25T22:22:29.558Z,85
2022-12-25T22:23:36.573Z,85
2022-12-25T22:24:43.364Z,85
2022-12-25T22:25:50.573Z,84
2022-12-25T22:37:29.839Z,84
2022-12-25T22:38:36.709Z,85
2022-12-25T22:39:43.514Z,85
2022-12-25T22:40:50.706Z,85
2022-12-25T22:41:57.918Z,85
2022-12-25T22:44:06.627Z,85
2022-12-25T22:44:42.054Z,85
2022-12-25T22:45:49.203Z,85
2022-12-25T22:46:56.334Z,85
2022-12-25T22:48:03.567Z,85
2022-12-25T23:02:32.466Z,85
2022-12-25T23:03:39.694Z,85
2022-12-25T23:04:46.738Z,85
2022-12-25T23:05:53.969Z,85
2022-12-25T23:24:27.164Z,85
2022-12-25T23:25:39.426Z,85
2022-12-25T23:26:51.446Z,85
2022-12-25T23:27:58.606Z,85
2022-12-25T23:29:05.732Z,85
2022-12-25T23:34:20.704Z,85
2022-12-25T23:35:27.781Z,85
2022-12-25T23:36:34.950Z,85
2022-12-25T23:37:41.738Z,85
2022-12-25T23:38:48.923Z,85
2022-12-25T23:42:43.337Z,85
2022-12-25T23:43:50.643Z,85
2022-12-25T23:44:57.784Z,85
2022-12-25T23:46:04.932Z,85
2022-12-25T23:48:13.904Z,85
2022-12-25T23:49:20.738Z,85
2022-12-25T23:50:27.883Z,85
2022-12-25T23:51:35.062Z,85
2022-12-25T23:52:41.899Z,85
2022-12-25T23:57:46.992Z,85
2022-12-25T23:58:53.866Z,85
